Time;durP1;ratioP1;P1;durP2;ratioP2;P2;SDS_P1;SDS_P2;PMS_P1;PMS_P2;Temp;Humidity;BMP_temperature;BMP_pressure;BME280_temperature;BME280_humidity;BME280_pressure;Samples;Min_cycle;Max_cycle;Signal;HPM_P1;HPM_P2
2021/03/11 00:00:12;;;;;;;19.70;12.20;;;-3.10;99.90;;;;;;6256969;28;20218;-65
2021/03/11 00:03:16;;;;;;;19.90;11.97;;;-3.10;99.90;;;;;;6239233;28;20210;-65
2021/03/11 00:06:18;;;;;;;20.77;12.77;;;-3.10;99.90;;;;;;6256210;28;20661;-65
2021/03/11 00:09:19;;;;;;;19.87;11.70;;;-3.10;99.90;;;;;;6256639;28;20218;-65
2021/03/11 00:12:21;;;;;;;18.60;11.83;;;-3.10;99.90;;;;;;6238225;28;20233;-65
2021/03/11 00:15:24;;;;;;;18.40;11.07;;;-3.10;99.90;;;;;;6257193;28;20310;-65
2021/03/11 00:18:25;;;;;;;23.80;13.70;;;-3.10;99.90;;;;;;6256479;28;20298;-65
2021/03/11 00:21:28;;;;;;;25.23;14.10;;;-3.10;99.90;;;;;;6238856;28;20222;-65
2021/03/11 00:24:30;;;;;;;24.37;13.83;;;-3.20;99.90;;;;;;6239853;28;20316;-65
2021/03/11 00:27:32;;;;;;;22.40;12.87;;;-3.20;99.90;;;;;;6255814;28;20227;-65
2021/03/11 00:30:34;;;;;;;22.03;12.53;;;-3.20;99.90;;;;;;6256304;28;20233;-65
2021/03/11 00:33:36;;;;;;;21.00;12.57;;;-3.20;99.90;;;;;;6237847;28;20789;-65
2021/03/11 00:36:38;;;;;;;21.53;14.03;;;-3.20;99.90;;;;;;6239027;28;20219;-65
2021/03/11 00:39:40;;;;;;;22.63;13.10;;;-3.20;99.90;;;;;;6256998;28;20231;-65
2021/03/11 00:42:42;;;;;;;21.87;13.43;;;-3.20;99.90;;;;;;6256193;28;20237;-65
2021/03/11 00:45:47;;;;;;;25.27;13.93;;;-3.20;99.90;;;;;;6239552;28;20223;-65
2021/03/11 00:48:49;;;;;;;22.27;12.70;;;-3.20;99.90;;;;;;6255869;28;20231;-65
2021/03/11 00:51:51;;;;;;;24.60;13.77;;;-3.20;99.90;;;;;;6237512;28;20255;-65
2021/03/11 00:54:53;;;;;;;21.60;12.43;;;-3.20;99.90;;;;;;6222694;28;20236;-65
2021/03/11 00:57:56;;;;;;;24.30;14.40;;;-3.20;99.90;;;;;;6255355;28;20368;-65
2021/03/11 01:01:02;;;;;;;22.07;13.37;;;-3.20;99.90;;;;;;6239499;28;20231;-65
2021/03/11 01:04:12;;;;;;;24.07;13.80;;;-3.20;99.90;;;;;;6237730;28;20250;-65
2021/03/11 01:07:17;;;;;;;20.73;12.50;;;-3.10;99.90;;;;;;6224685;28;20320;-65
2021/03/11 01:10:19;;;;;;;22.53;12.70;;;-3.20;99.90;;;;;;6242871;28;20227;-65
2021/03/11 01:13:21;;;;;;;20.43;12.20;;;-3.20;99.90;;;;;;6260685;28;20237;-65
2021/03/11 01:16:23;;;;;;;23.37;13.77;;;-3.20;99.90;;;;;;6261148;28;20242;-65
2021/03/11 01:19:25;;;;;;;19.20;12.43;;;-3.20;99.90;;;;;;6260452;28;20235;-65
2021/03/11 01:22:27;;;;;;;23.73;13.40;;;-3.20;99.90;;;;;;6260372;28;20364;-65
2021/03/11 01:25:29;;;;;;;20.20;12.27;;;-3.20;99.90;;;;;;6225989;28;20230;-65
2021/03/11 01:28:30;;;;;;;17.90;11.33;;;-3.20;99.90;;;;;;6241430;28;20289;-65
2021/03/11 01:31:32;;;;;;;23.33;13.57;;;-3.20;99.90;;;;;;6236356;28;20242;-65
2021/03/11 01:34:34;;;;;;;20.67;12.53;;;-3.20;99.90;;;;;;6234273;28;20818;-65
2021/03/11 01:37:36;;;;;;;21.90;13.30;;;-3.20;99.90;;;;;;6235832;28;20235;-65
2021/03/11 01:40:38;;;;;;;25.40;14.37;;;-3.20;99.90;;;;;;6235071;28;20253;-65
2021/03/11 01:43:40;;;;;;;22.07;13.13;;;-3.20;99.90;;;;;;6234868;28;20227;-65
2021/03/11 01:46:41;;;;;;;23.03;13.00;;;-3.20;99.90;;;;;;6233308;28;20231;-65
2021/03/11 01:49:43;;;;;;;21.50;12.90;;;-3.20;99.90;;;;;;6234040;28;20235;-66
2021/03/11 01:52:46;;;;;;;22.53;13.50;;;-3.20;99.90;;;;;;6241354;28;20696;-65
2021/03/11 01:55:48;;;;;;;21.20;12.47;;;-3.20;99.90;;;;;;6233571;28;20224;-65
2021/03/11 01:58:50;;;;;;;20.33;12.50;;;-3.20;99.90;;;;;;6236084;28;20226;-65
2021/03/11 02:01:52;;;;;;;21.20;12.57;;;-3.10;99.90;;;;;;6233876;28;20259;-65
2021/03/11 02:04:58;;;;;;;31.63;13.57;;;-3.10;99.90;;;;;;6235204;28;20282;-65
2021/03/11 02:08:00;;;;;;;23.10;13.03;;;-3.10;99.90;;;;;;6234617;28;20258;-65
2021/03/11 02:11:02;;;;;;;23.97;12.80;;;-3.10;99.90;;;;;;6235701;28;20598;-65
2021/03/11 02:14:30;;;;;;;20.27;11.93;;;-3.00;99.90;;;;;;6250787;28;20232;-65
2021/03/11 02:17:51;;;;;;;20.90;12.33;;;-3.00;99.90;;;;;;6234198;28;20728;-65
2021/03/11 02:21:10;;;;;;;21.10;12.50;;;-3.00;99.90;;;;;;6221669;28;20319;-65
2021/03/11 02:24:48;;;;;;;20.60;11.80;;;-3.10;99.90;;;;;;6232887;28;20242;-65
2021/03/11 02:27:59;;;;;;;19.87;11.77;;;-3.10;99.90;;;;;;6235929;28;20716;-65
2021/03/11 02:31:01;;;;;;;20.83;12.00;;;-3.10;99.90;;;;;;6256334;28;20754;-65
2021/03/11 02:34:09;;;;;;;19.27;12.07;;;-3.10;99.90;;;;;;6225019;28;20231;-65
2021/03/11 02:37:37;;;;;;;20.70;11.70;;;-3.10;99.90;;;;;;6258134;28;20231;-65
2021/03/11 02:40:40;;;;;;;18.10;11.03;;;-3.10;99.90;;;;;;6241102;28;20224;-65
2021/03/11 02:43:48;;;;;;;17.20;11.10;;;-3.10;99.90;;;;;;6257861;28;20237;-65
2021/03/11 02:46:51;;;;;;;17.97;10.70;;;-3.10;99.90;;;;;;6258577;28;20230;-65
2021/03/11 02:49:57;;;;;;;19.50;10.63;;;-3.10;99.90;;;;;;6258290;28;20687;-65
2021/03/11 02:53:04;;;;;;;19.57;11.53;;;-3.10;99.90;;;;;;6257669;28;20246;-65
2021/03/11 02:56:07;;;;;;;18.63;10.60;;;-3.10;99.90;;;;;;6258121;28;20223;-65
2021/03/11 02:59:11;;;;;;;16.83;10.23;;;-3.10;99.90;;;;;;6241359;28;20223;-65
2021/03/11 03:02:14;;;;;;;19.03;11.43;;;-3.10;99.90;;;;;;6261056;28;20223;-65
2021/03/11 03:05:20;;;;;;;14.77;9.33;;;-3.10;99.90;;;;;;6261391;28;20215;-65
2021/03/11 03:08:23;;;;;;;18.43;10.27;;;-3.10;99.90;;;;;;6257266;28;20239;-65
2021/03/11 03:11:25;;;;;;;17.17;10.47;;;-3.10;99.90;;;;;;6258017;28;20223;-65
2021/03/11 03:14:27;;;;;;;19.73;10.93;;;-3.10;99.90;;;;;;6256048;28;20223;-65
2021/03/11 03:17:30;;;;;;;20.30;11.37;;;-3.10;99.90;;;;;;6257725;28;20598;-65
2021/03/11 03:20:32;;;;;;;18.70;10.80;;;-3.10;99.90;;;;;;6256233;28;20727;-65
2021/03/11 03:23:35;;;;;;;17.30;10.53;;;-3.10;99.90;;;;;;6257556;28;20229;-65
2021/03/11 03:26:38;;;;;;;17.17;10.97;;;-3.10;99.90;;;;;;6257870;28;20234;-66
2021/03/11 03:29:42;;;;;;;19.60;11.37;;;-3.10;99.90;;;;;;6257935;28;20223;-66
2021/03/11 03:32:45;;;;;;;19.43;11.90;;;-3.10;99.90;;;;;;6240223;28;20707;-65
2021/03/11 03:35:47;;;;;;;16.67;10.10;;;-3.10;99.90;;;;;;6256425;28;20219;-65
2021/03/11 03:38:49;;;;;;;14.77;10.00;;;-3.00;99.90;;;;;;6256790;28;20226;-65
2021/03/11 03:41:55;;;;;;;16.30;10.50;;;-3.10;99.90;;;;;;6239974;28;20234;-65
2021/03/11 03:45:01;;;;;;;17.30;9.73;;;-3.10;99.90;;;;;;6256111;28;20226;-65
2021/03/11 03:48:06;;;;;;;18.33;10.43;;;-3.10;99.90;;;;;;6257426;28;20718;-65
2021/03/11 03:51:10;;;;;;;16.13;10.37;;;-3.10;99.90;;;;;;6256713;28;20218;-65
2021/03/11 03:54:26;;;;;;;18.00;10.03;;;-3.00;99.90;;;;;;6257871;28;20284;-65
2021/03/11 03:57:30;;;;;;;15.00;10.27;;;-3.10;99.90;;;;;;6221745;28;20227;-65
2021/03/11 04:00:33;;;;;;;18.10;11.20;;;-3.10;99.90;;;;;;6256312;28;20293;-65
2021/03/11 04:03:36;;;;;;;18.37;11.30;;;-3.10;99.90;;;;;;6238703;28;20309;-65
2021/03/11 04:06:39;;;;;;;20.60;12.37;;;-3.00;99.90;;;;;;6257604;28;20723;-65
2021/03/11 04:09:41;;;;;;;21.50;12.47;;;-3.00;99.90;;;;;;6257485;28;20226;-65
2021/03/11 04:12:43;;;;;;;19.53;11.10;;;-2.90;99.90;;;;;;6237803;28;20226;-65
2021/03/11 04:15:46;;;;;;;22.20;13.20;;;-2.90;99.90;;;;;;6256551;28;20226;-65
2021/03/11 04:18:52;;;;;;;25.47;13.53;;;-2.90;99.90;;;;;;6256249;28;20265;-65
2021/03/11 04:21:53;;;;;;;20.67;12.80;;;-2.70;99.90;;;;;;6257004;28;20235;-65
2021/03/11 04:24:57;;;;;;;24.33;14.40;;;-2.70;99.90;;;;;;6256182;28;20718;-65
2021/03/11 04:27:58;;;;;;;21.77;13.37;;;-2.60;99.90;;;;;;6242352;28;20684;-65
2021/03/11 04:31:01;;;;;;;21.40;13.10;;;-2.60;99.90;;;;;;6260082;28;20239;-65
2021/03/11 04:34:04;;;;;;;22.30;12.93;;;-2.50;99.90;;;;;;6240944;28;20243;-65
2021/03/11 04:37:06;;;;;;;21.47;12.97;;;-2.50;99.90;;;;;;6256441;28;20231;-65
2021/03/11 04:40:10;;;;;;;20.47;12.93;;;-2.50;99.90;;;;;;6239283;28;20596;-65
2021/03/11 04:43:12;;;;;;;21.20;12.63;;;-2.40;99.90;;;;;;6238032;28;20245;-65
2021/03/11 04:46:17;;;;;;;21.73;13.50;;;-2.40;99.90;;;;;;6256686;28;20227;-65
2021/03/11 04:49:22;;;;;;;25.07;14.30;;;-2.40;99.90;;;;;;6237863;28;20238;-65
2021/03/11 04:52:25;;;;;;;20.30;13.00;;;-2.40;99.90;;;;;;6238580;28;20242;-65
2021/03/11 04:55:27;;;;;;;22.20;12.37;;;-2.40;99.90;;;;;;6237847;28;20235;-65
2021/03/11 04:58:29;;;;;;;22.43;12.83;;;-2.40;99.90;;;;;;6255336;28;20227;-65
2021/03/11 05:01:39;;;;;;;21.17;12.13;;;-2.30;99.90;;;;;;6239949;28;20231;-65
2021/03/11 05:04:43;;;;;;;16.77;11.47;;;-2.30;99.90;;;;;;6255070;28;20572;-65
2021/03/11 05:07:45;;;;;;;21.00;12.30;;;-2.30;99.90;;;;;;6221657;28;20223;-65
2021/03/11 05:10:46;;;;;;;19.03;12.80;;;-2.30;99.90;;;;;;6256584;28;20229;-65
2021/03/11 05:13:48;;;;;;;20.53;12.10;;;-2.30;99.90;;;;;;6255828;28;20599;-65
2021/03/11 05:16:50;;;;;;;20.10;11.53;;;-2.30;99.90;;;;;;6254771;28;20593;-65
2021/03/11 05:19:52;;;;;;;18.93;12.13;;;-2.30;99.90;;;;;;6256003;28;20250;-65
2021/03/11 05:22:55;;;;;;;23.97;13.03;;;-2.30;99.90;;;;;;6238038;28;20229;-65
2021/03/11 05:25:57;;;;;;;21.03;12.27;;;-2.30;99.90;;;;;;6237151;28;20322;-65
2021/03/11 05:28:59;;;;;;;22.17;12.13;;;-2.20;99.90;;;;;;6255536;28;20227;-65
2021/03/11 05:32:01;;;;;;;21.37;13.57;;;-2.20;99.90;;;;;;6255581;28;20226;-65
2021/03/11 05:35:04;;;;;;;26.30;13.40;;;-2.10;99.90;;;;;;6237867;28;20716;-65
2021/03/11 05:38:06;;;;;;;26.77;13.03;;;-2.10;99.90;;;;;;6236717;28;20243;-65
2021/03/11 05:41:09;;;;;;;22.13;13.37;;;-2.10;99.90;;;;;;6255747;28;20233;-65
2021/03/11 05:44:13;;;;;;;22.97;12.63;;;-2.00;99.90;;;;;;6256147;28;20227;-65
2021/03/11 05:47:15;;;;;;;22.20;12.80;;;-2.00;99.90;;;;;;6256354;28;20300;-65
2021/03/11 05:50:18;;;;;;;20.30;12.30;;;-1.90;99.90;;;;;;6238468;28;20834;-65
2021/03/11 05:53:25;;;;;;;23.10;13.17;;;-1.80;99.90;;;;;;6240841;28;20231;-65
2021/03/11 05:56:27;;;;;;;19.40;12.27;;;-1.80;99.90;;;;;;6225956;28;20257;-65
2021/03/11 05:59:29;;;;;;;22.63;13.67;;;-1.70;99.90;;;;;;6259848;28;20227;-65
2021/03/11 06:02:32;;;;;;;19.50;12.27;;;-1.70;99.90;;;;;;6259674;28;20276;-65
2021/03/11 06:05:34;;;;;;;22.07;12.77;;;-1.60;99.90;;;;;;6241621;28;20235;-65
2021/03/11 06:08:36;;;;;;;20.83;12.97;;;-1.60;99.90;;;;;;6241663;28;20258;-65
2021/03/11 06:11:40;;;;;;;25.50;12.67;;;-1.50;99.90;;;;;;6241144;28;20224;-65
2021/03/11 06:14:48;;;;;;;24.30;13.53;;;-1.50;99.90;;;;;;6241993;28;20225;-65
2021/03/11 06:17:52;;;;;;;25.63;13.70;;;-1.40;99.90;;;;;;6258804;28;20593;-65
2021/03/11 06:20:54;;;;;;;22.50;13.13;;;-1.30;99.90;;;;;;6256944;28;20242;-65
2021/03/11 06:23:55;;;;;;;22.10;13.73;;;-1.20;99.90;;;;;;6258843;28;20333;-65
2021/03/11 06:26:57;;;;;;;25.73;13.83;;;-1.10;99.90;;;;;;6258173;28;20222;-65
2021/03/11 06:29:59;;;;;;;23.40;12.93;;;-1.00;99.90;;;;;;6259768;28;20230;-65
2021/03/11 06:33:02;;;;;;;22.10;13.57;;;-0.90;99.90;;;;;;6243231;28;20231;-65
2021/03/11 06:36:14;;;;;;;23.13;13.60;;;-0.80;99.90;;;;;;6259311;28;20292;-65
2021/03/11 06:39:27;;;;;;;20.07;13.30;;;-0.60;99.90;;;;;;6259267;28;20223;-65
2021/03/11 06:42:29;;;;;;;20.30;12.40;;;-0.50;99.90;;;;;;6258133;28;20727;-65
2021/03/11 06:45:31;;;;;;;19.50;12.10;;;-0.40;99.90;;;;;;6240541;28;20256;-65
2021/03/11 06:48:32;;;;;;;23.00;13.60;;;-0.30;99.90;;;;;;6258727;28;20243;-65
2021/03/11 06:51:35;;;;;;;23.33;14.17;;;-0.20;99.90;;;;;;6258552;28;20234;-65
2021/03/11 06:55:03;;;;;;;24.50;13.37;;;-0.10;99.90;;;;;;6240258;28;20227;-65
2021/03/11 06:58:21;;;;;;;21.27;12.77;;;0.10;99.90;;;;;;6257432;28;20373;-65
2021/03/11 07:01:24;;;;;;;18.97;11.67;;;0.20;99.90;;;;;;6258926;28;20231;-65
2021/03/11 07:04:26;;;;;;;19.23;12.97;;;0.30;99.90;;;;;;6258606;28;20695;-65
2021/03/11 07:07:28;;;;;;;17.73;11.70;;;0.50;99.90;;;;;;6258127;28;20326;-65
2021/03/11 07:10:31;;;;;;;19.10;11.20;;;0.70;99.90;;;;;;6257152;28;20231;-65
2021/03/11 07:13:40;;;;;;;18.47;11.83;;;0.90;99.90;;;;;;6257359;28;20257;-65
2021/03/11 07:16:42;;;;;;;15.93;10.33;;;1.10;99.90;;;;;;6258867;28;20238;-65
2021/03/11 07:20:11;;;;;;;19.83;12.13;;;1.30;99.90;;;;;;6258643;28;20234;-65
2021/03/11 07:23:15;;;;;;;17.77;11.33;;;1.50;99.90;;;;;;6257242;28;20328;-65
2021/03/11 07:26:17;;;;;;;16.70;10.83;;;1.70;99.90;;;;;;6240703;28;20718;-65
2021/03/11 07:29:20;;;;;;;14.90;9.73;;;1.90;99.90;;;;;;6256816;28;20230;-65
2021/03/11 07:32:22;;;;;;;16.73;10.03;;;2.20;99.90;;;;;;6239752;28;20231;-65
2021/03/11 07:35:31;;;;;;;15.50;10.47;;;2.40;99.90;;;;;;6239441;28;20231;-65
2021/03/11 07:38:34;;;;;;;14.77;9.47;;;2.60;99.90;;;;;;6239479;28;20234;-65
2021/03/11 07:41:36;;;;;;;14.23;9.33;;;2.90;99.90;;;;;;6257640;28;20227;-65
2021/03/11 07:44:38;;;;;;;12.87;9.17;;;3.10;99.90;;;;;;6255891;28;20314;-65
2021/03/11 07:47:43;;;;;;;14.03;9.10;;;3.30;99.90;;;;;;6239827;28;20231;-65
2021/03/11 07:50:45;;;;;;;15.37;9.47;;;3.50;99.90;;;;;;6257928;28;20223;-65
2021/03/11 07:53:47;;;;;;;12.87;8.30;;;3.60;99.90;;;;;;6256521;28;20712;-65
2021/03/11 07:56:52;;;;;;;12.30;8.60;;;3.70;99.90;;;;;;6256566;28;20258;-65
2021/03/11 07:59:55;;;;;;;10.97;7.93;;;3.90;99.90;;;;;;6255957;28;20227;-65
2021/03/11 08:03:06;;;;;;;11.20;8.27;;;4.00;99.90;;;;;;6238720;28;20616;-65
2021/03/11 08:06:26;;;;;;;11.77;8.50;;;4.20;99.90;;;;;;6238212;28;20220;-65
2021/03/11 08:09:36;;;;;;;15.47;9.63;;;4.30;99.90;;;;;;6256204;28;20627;-65
2021/03/11 08:12:39;;;;;;;13.50;8.73;;;4.50;99.90;;;;;;6256197;28;20261;-65
2021/03/11 08:15:41;;;;;;;13.37;9.20;;;4.80;99.90;;;;;;6255825;28;20231;-65
2021/03/11 08:18:45;;;;;;;12.20;7.67;;;4.90;99.90;;;;;;6256788;28;20230;-65
2021/03/11 08:21:47;;;;;;;12.63;9.30;;;5.00;99.90;;;;;;6256635;28;20241;-65
2021/03/11 08:24:49;;;;;;;14.27;8.63;;;5.00;99.90;;;;;;6239144;28;20229;-65
2021/03/11 08:27:53;;;;;;;13.90;9.10;;;5.00;99.90;;;;;;6255629;28;20266;-65
2021/03/11 08:30:57;;;;;;;15.40;9.67;;;5.10;99.90;;;;;;6217664;28;20244;-65
2021/03/11 08:33:59;;;;;;;13.10;9.03;;;5.00;99.90;;;;;;6231707;28;20228;-65
2021/03/11 08:37:20;;;;;;;12.30;8.17;;;5.10;99.90;;;;;;6231271;28;20241;-65
2021/03/11 08:40:38;;;;;;;12.93;8.47;;;5.30;99.90;;;;;;6230877;28;21127;-65
2021/03/11 08:43:41;;;;;;;13.37;8.80;;;5.40;99.90;;;;;;6231078;28;20225;-65
2021/03/11 08:46:53;;;;;;;12.20;8.70;;;5.50;99.90;;;;;;6196994;28;20261;-65
2021/03/11 08:49:55;;;;;;;11.23;7.83;;;5.60;99.90;;;;;;6214031;28;20220;-65
2021/03/11 08:52:57;;;;;;;14.30;8.97;;;5.70;99.90;;;;;;6213732;28;20233;-65
2021/03/11 08:55:58;;;;;;;12.20;8.57;;;5.70;99.90;;;;;;6213790;28;20609;-65
2021/03/11 08:59:15;;;;;;;11.57;8.40;;;5.80;99.90;;;;;;6215545;28;20265;-65
2021/03/11 09:02:33;;;;;;;12.37;8.43;;;5.90;99.90;;;;;;6213894;28;20226;-65
2021/03/11 09:05:48;;;;;;;10.60;7.50;;;6.00;99.90;;;;;;6231269;28;20231;-65
2021/03/11 09:08:52;;;;;;;9.50;7.33;;;6.10;99.90;;;;;;6213661;28;20236;-65
2021/03/11 09:11:55;;;;;;;10.40;7.63;;;6.20;99.90;;;;;;6213108;28;20535;-65
2021/03/11 09:14:58;;;;;;;11.00;7.83;;;6.30;99.90;;;;;;6231618;28;20233;-65
2021/03/11 09:18:00;;;;;;;11.50;6.97;;;6.30;99.90;;;;;;6197177;28;20238;-65
2021/03/11 09:21:04;;;;;;;10.97;7.33;;;6.40;99.90;;;;;;6230715;28;20595;-65
2021/03/11 09:24:18;;;;;;;9.83;7.23;;;6.50;99.90;;;;;;6213640;28;20299;-65
2021/03/11 09:27:19;;;;;;;9.77;6.97;;;6.60;99.90;;;;;;6215819;28;20254;-65
2021/03/11 09:30:23;;;;;;;11.03;7.67;;;6.80;99.90;;;;;;6251647;28;20276;-65
2021/03/11 09:33:24;;;;;;;12.53;7.17;;;6.90;99.90;;;;;;6260261;28;20228;-65
2021/03/11 09:36:26;;;;;;;12.57;8.03;;;7.00;99.10;;;;;;6261292;28;20742;-65
2021/03/11 09:39:28;;;;;;;10.10;7.57;;;7.10;97.90;;;;;;6259700;28;20227;-65
2021/03/11 09:42:30;;;;;;;11.43;7.73;;;7.00;98.00;;;;;;6242054;28;20215;-65
2021/03/11 09:45:36;;;;;;;13.70;8.10;;;7.00;98.60;;;;;;6260051;28;20615;-66
2021/03/11 09:48:44;;;;;;;9.40;7.17;;;7.00;98.60;;;;;;6259101;28;20251;-65
2021/03/11 09:51:48;;;;;;;14.33;7.83;;;7.00;98.40;;;;;;6259670;28;20223;-65
2021/03/11 09:54:59;;;;;;;11.50;7.93;;;7.00;98.60;;;;;;6225792;28;20222;-65
2021/03/11 09:58:01;;;;;;;10.60;6.93;;;7.00;97.90;;;;;;6259060;28;20724;-65
2021/03/11 10:01:31;;;;;;;14.83;8.20;;;7.00;98.00;;;;;;6241794;28;20223;-65
2021/03/11 10:04:35;;;;;;;12.90;8.53;;;7.10;97.40;;;;;;6241353;28;20231;-65
2021/03/11 10:07:36;;;;;;;11.03;7.37;;;7.20;97.00;;;;;;6241533;28;20231;-65
2021/03/11 10:10:38;;;;;;;10.23;7.33;;;7.20;97.30;;;;;;6259510;28;20321;-65
2021/03/11 10:13:48;;;;;;;11.03;7.57;;;7.20;98.20;;;;;;6258876;28;20231;-65
2021/03/11 10:16:52;;;;;;;16.40;7.87;;;7.20;98.50;;;;;;6258545;28;20219;-65
2021/03/11 10:19:54;;;;;;;12.13;7.77;;;7.20;97.30;;;;;;6260134;28;20231;-65
2021/03/11 10:23:17;;;;;;;10.57;7.67;;;7.20;97.50;;;;;;6258454;28;20597;-65
2021/03/11 10:26:22;;;;;;;10.37;7.20;;;7.40;96.00;;;;;;6241522;28;20232;-65
2021/03/11 10:29:30;;;;;;;11.37;7.23;;;7.50;94.90;;;;;;6257666;28;20246;-65
2021/03/11 10:32:33;;;;;;;11.50;6.90;;;7.60;92.60;;;;;;6242154;28;20246;-65
2021/03/11 10:35:40;;;;;;;9.77;6.87;;;7.60;92.10;;;;;;6241174;28;20228;-65
2021/03/11 10:38:43;;;;;;;10.40;7.40;;;7.70;91.20;;;;;;6257062;28;20231;-65
2021/03/11 10:42:03;;;;;;;13.23;7.20;;;7.70;89.10;;;;;;6259525;28;20231;-65
2021/03/11 10:45:06;;;;;;;10.33;6.40;;;7.80;91.60;;;;;;6257617;28;20223;-65
2021/03/11 10:48:08;;;;;;;10.30;6.87;;;7.80;90.80;;;;;;6241784;28;20236;-65
2021/03/11 10:51:17;;;;;;;11.47;6.00;;;7.90;87.40;;;;;;6258599;28;20214;-65
2021/03/11 10:54:32;;;;;;;11.20;6.43;;;7.90;88.20;;;;;;6259462;28;20213;-65
2021/03/11 10:57:37;;;;;;;8.77;6.70;;;7.90;87.20;;;;;;6257121;28;20311;-65
2021/03/11 11:00:38;;;;;;;8.87;6.53;;;8.00;87.30;;;;;;6256957;28;20237;-65
2021/03/11 11:03:41;;;;;;;12.23;7.23;;;8.10;87.40;;;;;;6240682;28;20246;-65
2021/03/11 11:06:44;;;;;;;8.60;6.10;;;8.20;88.60;;;;;;6241180;28;20373;-65
2021/03/11 11:09:47;;;;;;;10.03;7.10;;;8.20;89.10;;;;;;6257174;28;20230;-65
2021/03/11 11:12:50;;;;;;;8.13;6.00;;;8.30;88.20;;;;;;6258749;28;20234;-65
2021/03/11 11:15:52;;;;;;;8.83;6.23;;;8.40;86.60;;;;;;6223453;28;20227;-65
2021/03/11 11:18:54;;;;;;;11.53;7.23;;;8.50;86.70;;;;;;6239925;28;20251;-65
2021/03/11 11:21:55;;;;;;;10.27;6.50;;;8.60;85.00;;;;;;6240563;28;20228;-65
2021/03/11 11:24:59;;;;;;;9.07;6.70;;;8.70;83.30;;;;;;6258715;28;20238;-65
2021/03/11 11:28:01;;;;;;;8.97;5.83;;;8.70;80.70;;;;;;6257774;28;20323;-65
2021/03/11 11:31:02;;;;;;;8.33;6.00;;;8.70;82.30;;;;;;6257299;28;20246;-65
2021/03/11 11:34:05;;;;;;;7.37;5.87;;;8.70;82.00;;;;;;6240344;28;20596;-65
2021/03/11 11:37:07;;;;;;;8.03;5.50;;;8.70;80.80;;;;;;6257322;28;20235;-65
2021/03/11 11:40:09;;;;;;;7.37;6.23;;;8.70;79.60;;;;;;6257614;28;20323;-65
2021/03/11 11:43:11;;;;;;;9.77;5.37;;;8.90;79.50;;;;;;6257581;28;20318;-65
2021/03/11 11:46:13;;;;;;;7.30;4.93;;;8.90;80.30;;;;;;6258319;28;20276;-65
2021/03/11 11:49:15;;;;;;;9.13;5.30;;;9.00;82.10;;;;;;6238988;28;20639;-65
2021/03/11 11:52:18;;;;;;;8.63;5.60;;;9.10;78.50;;;;;;6239223;28;20277;-65
2021/03/11 11:55:19;;;;;;;7.73;4.80;;;9.20;79.10;;;;;;6255393;28;20260;-65
2021/03/11 11:58:21;;;;;;;7.70;5.50;;;9.20;80.20;;;;;;6238926;28;20230;-65
2021/03/11 12:01:24;;;;;;;9.27;5.80;;;9.20;84.70;;;;;;6237815;28;20704;-65
2021/03/11 12:04:26;;;;;;;8.17;6.70;;;9.20;84.30;;;;;;6254935;28;20237;-65
2021/03/11 12:07:28;;;;;;;10.63;6.27;;;9.10;85.90;;;;;;6255663;28;20238;-65
2021/03/11 12:10:30;;;;;;;11.70;6.57;;;9.10;87.80;;;;;;6258056;28;20374;-65
2021/03/11 12:13:32;;;;;;;10.43;6.87;;;9.00;90.70;;;;;;6256439;28;20238;-65
2021/03/11 12:16:35;;;;;;;11.27;7.07;;;8.90;89.40;;;;;;6256648;28;20281;-65
2021/03/11 12:19:37;;;;;;;10.23;6.77;;;8.90;89.40;;;;;;6256012;28;20575;-65
2021/03/11 12:22:39;;;;;;;9.57;6.27;;;8.90;89.90;;;;;;6239573;28;20228;-65
2021/03/11 12:25:41;;;;;;;8.90;6.70;;;8.80;90.70;;;;;;6255387;28;20232;-65
2021/03/11 12:28:43;;;;;;;8.03;6.13;;;8.80;90.90;;;;;;6238440;28;21697;-65
2021/03/11 12:31:47;;;;;;;8.80;5.73;;;8.70;90.60;;;;;;6255080;28;20220;-65
2021/03/11 12:34:49;;;;;;;10.17;6.63;;;8.70;91.00;;;;;;6258005;28;20281;-65
2021/03/11 12:37:52;;;;;;;9.87;6.40;;;8.70;91.50;;;;;;6237957;28;20225;-65
2021/03/11 12:40:54;;;;;;;8.53;6.13;;;8.60;90.40;;;;;;6254482;28;20320;-65
2021/03/11 12:43:55;;;;;;;10.47;7.20;;;8.50;90.70;;;;;;6238521;28;20315;-65
2021/03/11 12:46:57;;;;;;;10.07;6.67;;;8.40;90.40;;;;;;6238737;28;20301;-65
2021/03/11 12:49:59;;;;;;;9.40;6.53;;;8.30;90.70;;;;;;6238108;28;20607;-65
2021/03/11 12:53:02;;;;;;;9.60;7.13;;;8.30;90.60;;;;;;6237979;28;20228;-65
2021/03/11 12:56:05;;;;;;;10.97;7.30;;;8.30;89.50;;;;;;6255323;28;20222;-65
2021/03/11 12:59:06;;;;;;;10.30;7.43;;;8.30;90.20;;;;;;6256048;28;20771;-65
2021/03/11 13:02:08;;;;;;;9.27;6.73;;;8.30;90.00;;;;;;6237009;28;20701;-65
2021/03/11 13:05:11;;;;;;;13.50;7.77;;;8.40;89.50;;;;;;6238316;28;20231;-65
2021/03/11 13:08:13;;;;;;;12.20;7.90;;;8.40;87.10;;;;;;6237946;28;20228;-65
2021/03/11 13:11:17;;;;;;;10.37;7.37;;;8.60;87.80;;;;;;6221920;28;20223;-65
2021/03/11 13:14:19;;;;;;;11.07;8.00;;;8.70;88.30;;;;;;6255407;28;20280;-65
2021/03/11 13:17:22;;;;;;;11.77;7.83;;;8.90;89.00;;;;;;6254098;28;20230;-65
2021/03/11 13:20:24;;;;;;;12.63;8.13;;;9.10;88.00;;;;;;6222038;28;20696;-65
2021/03/11 13:23:26;;;;;;;9.80;7.93;;;9.30;86.70;;;;;;6255442;28;20231;-65
2021/03/11 13:26:28;;;;;;;13.93;8.17;;;9.40;83.60;;;;;;6255369;28;20596;-65
2021/03/11 13:29:30;;;;;;;13.30;8.60;;;9.50;82.50;;;;;;6254880;28;20599;-65
2021/03/11 13:32:32;;;;;;;11.53;8.57;;;9.60;79.30;;;;;;6255658;28;20233;-65
2021/03/11 13:35:35;;;;;;;12.93;8.90;;;9.60;78.10;;;;;;6259577;28;20234;-65
2021/03/11 13:38:36;;;;;;;13.50;9.03;;;9.70;78.90;;;;;;6255018;28;20235;-65
2021/03/11 13:41:38;;;;;;;14.17;9.70;;;9.80;79.30;;;;;;6239243;28;20259;-65
2021/03/11 13:44:41;;;;;;;15.43;8.97;;;9.80;78.80;;;;;;6253808;28;20240;-65
2021/03/11 13:47:43;;;;;;;14.23;9.40;;;9.90;78.80;;;;;;6254924;28;20230;-65
2021/03/11 13:50:45;;;;;;;13.70;9.43;;;10.00;78.10;;;;;;6255091;28;20227;-65
2021/03/11 13:53:47;;;;;;;15.00;9.73;;;9.90;79.20;;;;;;6237178;28;20229;-65
2021/03/11 13:56:49;;;;;;;13.83;10.77;;;9.70;80.00;;;;;;6254551;28;20222;-66
2021/03/11 13:59:50;;;;;;;13.83;10.47;;;9.50;78.00;;;;;;6237648;28;20219;-65
2021/03/11 14:02:52;;;;;;;16.93;11.47;;;9.30;78.10;;;;;;6256303;28;20248;-65
2021/03/11 14:05:54;;;;;;;15.33;10.37;;;9.20;79.50;;;;;;6256511;28;20321;-65
2021/03/11 14:08:56;;;;;;;16.23;11.33;;;9.20;80.20;;;;;;6239520;28;20237;-65
2021/03/11 14:11:58;;;;;;;14.20;10.23;;;9.20;79.90;;;;;;6253396;28;20814;-65
2021/03/11 14:14:59;;;;;;;16.03;11.10;;;9.20;80.50;;;;;;6259154;28;20283;-65
2021/03/11 14:18:01;;;;;;;12.63;9.47;;;9.10;80.80;;;;;;6241238;28;20289;-65
2021/03/11 14:21:04;;;;;;;13.63;10.03;;;9.20;80.60;;;;;;6241225;28;20653;-65
2021/03/11 14:24:06;;;;;;;15.43;9.87;;;9.10;81.50;;;;;;6241788;28;20252;-65
2021/03/11 14:27:08;;;;;;;15.13;10.67;;;9.10;81.30;;;;;;6258669;28;20341;-65
2021/03/11 14:30:12;;;;;;;13.07;10.37;;;9.20;80.90;;;;;;6233198;28;20709;-65
2021/03/11 14:33:14;;;;;;;14.57;10.27;;;9.10;80.00;;;;;;6232145;28;20214;-65
2021/03/11 14:36:16;;;;;;;15.70;10.73;;;9.20;80.70;;;;;;6233028;28;20253;-65
2021/03/11 14:39:21;;;;;;;13.80;9.57;;;9.20;80.80;;;;;;6235123;28;20757;-65
2021/03/11 14:42:23;;;;;;;15.07;9.53;;;9.30;81.50;;;;;;6235240;28;20309;-65
2021/03/11 14:45:25;;;;;;;14.40;10.13;;;9.30;82.60;;;;;;6232908;28;20307;-65
2021/03/11 14:48:28;;;;;;;13.70;9.67;;;9.20;81.50;;;;;;6233843;28;20286;-65
2021/03/11 14:51:31;;;;;;;13.97;10.60;;;9.20;82.60;;;;;;6232795;28;20232;-65
2021/03/11 14:54:33;;;;;;;12.87;9.80;;;9.20;83.00;;;;;;6234272;28;20733;-65
2021/03/11 14:57:36;;;;;;;13.90;9.97;;;9.10;83.10;;;;;;6234123;28;20227;-65
2021/03/11 15:00:37;;;;;;;12.30;9.37;;;9.10;83.40;;;;;;6232724;28;20222;-65
2021/03/11 15:03:39;;;;;;;14.50;10.00;;;9.10;84.20;;;;;;6233759;28;20303;-65
2021/03/11 15:06:42;;;;;;;12.83;9.23;;;9.10;84.40;;;;;;6214528;28;20771;-65
2021/03/11 15:09:44;;;;;;;15.23;10.50;;;9.10;84.90;;;;;;6233922;28;20229;-65
2021/03/11 15:12:46;;;;;;;11.07;9.00;;;9.00;86.10;;;;;;6233165;28;20233;-65
2021/03/11 15:15:48;;;;;;;12.30;8.57;;;9.00;86.00;;;;;;6231892;28;20272;-65
2021/03/11 15:18:50;;;;;;;14.17;9.87;;;9.10;86.50;;;;;;6232250;28;20314;-65
2021/03/11 15:21:53;;;;;;;13.80;9.73;;;9.10;86.50;;;;;;6231866;28;20648;-65
2021/03/11 15:24:54;;;;;;;14.40;10.07;;;9.10;85.90;;;;;;6232985;28;20283;-65
2021/03/11 15:27:58;;;;;;;16.00;9.80;;;9.10;86.20;;;;;;6231624;28;20232;-65
2021/03/11 15:31:01;;;;;;;11.73;8.57;;;9.10;86.40;;;;;;6255142;28;20300;-65
2021/03/11 15:34:05;;;;;;;13.70;9.70;;;9.00;86.80;;;;;;6257532;28;20316;-65
2021/03/11 15:37:07;;;;;;;11.83;9.23;;;9.00;87.00;;;;;;6239907;28;20246;-65
2021/03/11 15:40:09;;;;;;;12.13;8.23;;;9.00;87.50;;;;;;6256293;28;20281;-65
2021/03/11 15:43:11;;;;;;;10.40;7.37;;;8.90;88.20;;;;;;6258060;28;20220;-65
2021/03/11 15:46:13;;;;;;;13.70;9.73;;;8.90;88.60;;;;;;6257559;28;20324;-65